sensor_id;sensor_type;location;lat;lon;timestamp;temperature;humidity
13848;DHT22;6994;49.752;6.094;2022-07-06T00:01:51;17.30;95.70
13848;DHT22;6994;49.752;6.094;2022-07-06T00:04:19;17.20;96.00
13848;DHT22;6994;49.752;6.094;2022-07-06T00:06:46;17.10;96.10
13848;DHT22;6994;49.752;6.094;2022-07-06T00:09:13;16.90;96.30
13848;DHT22;6994;49.752;6.094;2022-07-06T00:11:40;16.80;96.50
13848;DHT22;6994;49.752;6.094;2022-07-06T00:14:07;16.60;96.60
13848;DHT22;6994;49.752;6.094;2022-07-06T00:16:35;16.50;97.00
13848;DHT22;6994;49.752;6.094;2022-07-06T00:19:03;16.60;97.60
13848;DHT22;6994;49.752;6.094;2022-07-06T00:21:31;16.60;97.30
13848;DHT22;6994;49.752;6.094;2022-07-06T00:23:59;16.50;97.30
13848;DHT22;6994;49.752;6.094;2022-07-06T00:26:26;16.50;97.30
13848;DHT22;6994;49.752;6.094;2022-07-06T00:28:53;16.40;97.30
13848;DHT22;6994;49.752;6.094;2022-07-06T00:31:21;16.20;97.40
13848;DHT22;6994;49.752;6.094;2022-07-06T00:33:48;16.10;97.50
13848;DHT22;6994;49.752;6.094;2022-07-06T00:36:15;16.00;97.60
13848;DHT22;6994;49.752;6.094;2022-07-06T00:38:42;16.20;98.30
13848;DHT22;6994;49.752;6.094;2022-07-06T00:41:09;16.10;97.90
13848;DHT22;6994;49.752;6.094;2022-07-06T00:43:46;16.20;98.50
13848;DHT22;6994;49.752;6.094;2022-07-06T00:46:13;16.10;98.20
13848;DHT22;6994;49.752;6.094;2022-07-06T00:48:40;15.90;98.10
13848;DHT22;6994;49.752;6.094;2022-07-06T00:51:07;15.80;98.30
13848;DHT22;6994;49.752;6.094;2022-07-06T00:53:34;15.70;98.50
13848;DHT22;6994;49.752;6.094;2022-07-06T00:56:02;15.60;98.70
13848;DHT22;6994;49.752;6.094;2022-07-06T00:58:29;15.60;98.90
13848;DHT22;6994;49.752;6.094;2022-07-06T01:00:56;15.60;99.00
13848;DHT22;6994;49.752;6.094;2022-07-06T01:03:23;15.80;99.40
13848;DHT22;6994;49.752;6.094;2022-07-06T01:05:51;15.80;99.00
13848;DHT22;6994;49.752;6.094;2022-07-06T01:08:18;15.80;98.80
13848;DHT22;6994;49.752;6.094;2022-07-06T01:10:45;15.80;98.80
13848;DHT22;6994;49.752;6.094;2022-07-06T01:13:12;15.70;98.90
13848;DHT22;6994;49.752;6.094;2022-07-06T01:15:39;15.60;99.00
13848;DHT22;6994;49.752;6.094;2022-07-06T01:18:09;15.40;99.10
13848;DHT22;6994;49.752;6.094;2022-07-06T01:20:34;15.40;99.10
13848;DHT22;6994;49.752;6.094;2022-07-06T01:23:02;15.30;99.20
13848;DHT22;6994;49.752;6.094;2022-07-06T01:25:29;15.20;99.40
13848;DHT22;6994;49.752;6.094;2022-07-06T01:27:56;15.40;99.90
13848;DHT22;6994;49.752;6.094;2022-07-06T01:30:23;15.30;99.80
13848;DHT22;6994;49.752;6.094;2022-07-06T01:32:51;15.10;99.60
13848;DHT22;6994;49.752;6.094;2022-07-06T01:35:18;14.90;99.90
13848;DHT22;6994;49.752;6.094;2022-07-06T01:37:45;15.10;99.90
13848;DHT22;6994;49.752;6.094;2022-07-06T01:40:12;15.10;99.90
13848;DHT22;6994;49.752;6.094;2022-07-06T01:42:39;15.00;99.90
13848;DHT22;6994;49.752;6.094;2022-07-06T01:45:07;14.90;99.90
13848;DHT22;6994;49.752;6.094;2022-07-06T01:47:34;14.90;99.90
13848;DHT22;6994;49.752;6.094;2022-07-06T01:50:03;14.80;99.90
13848;DHT22;6994;49.752;6.094;2022-07-06T01:52:28;14.80;99.90
13848;DHT22;6994;49.752;6.094;2022-07-06T01:54:56;14.80;99.90
13848;DHT22;6994;49.752;6.094;2022-07-06T01:57:23;15.00;99.90
13848;DHT22;6994;49.752;6.094;2022-07-06T01:59:50;15.10;99.90
13848;DHT22;6994;49.752;6.094;2022-07-06T02:02:17;15.00;99.90
13848;DHT22;6994;49.752;6.094;2022-07-06T02:04:44;15.10;99.90
13848;DHT22;6994;49.752;6.094;2022-07-06T02:07:11;15.20;99.90
13848;DHT22;6994;49.752;6.094;2022-07-06T02:09:39;14.90;99.90
13848;DHT22;6994;49.752;6.094;2022-07-06T02:12:06;14.70;99.90
13848;DHT22;6994;49.752;6.094;2022-07-06T02:14:33;14.50;99.90
13848;DHT22;6994;49.752;6.094;2022-07-06T02:17:00;14.30;99.90
13848;DHT22;6994;49.752;6.094;2022-07-06T02:19:27;14.20;99.90
13848;DHT22;6994;49.752;6.094;2022-07-06T02:21:55;14.20;99.90
13848;DHT22;6994;49.752;6.094;2022-07-06T02:24:22;14.40;99.90
13848;DHT22;6994;49.752;6.094;2022-07-06T02:26:49;14.40;99.90
13848;DHT22;6994;49.752;6.094;2022-07-06T02:29:16;14.40;99.90
13848;DHT22;6994;49.752;6.094;2022-07-06T02:31:43;14.30;99.90
13848;DHT22;6994;49.752;6.094;2022-07-06T02:34:11;14.40;99.90
13848;DHT22;6994;49.752;6.094;2022-07-06T02:36:38;14.20;99.90
13848;DHT22;6994;49.752;6.094;2022-07-06T02:39:05;14.00;99.90
13848;DHT22;6994;49.752;6.094;2022-07-06T02:41:32;13.80;99.90
13848;DHT22;6994;49.752;6.094;2022-07-06T02:44:00;13.40;99.90
13848;DHT22;6994;49.752;6.094;2022-07-06T02:46:28;13.20;99.90
13848;DHT22;6994;49.752;6.094;2022-07-06T02:48:56;13.00;99.90
13848;DHT22;6994;49.752;6.094;2022-07-06T02:51:24;12.90;99.90
13848;DHT22;6994;49.752;6.094;2022-07-06T02:53:52;12.70;99.90
13848;DHT22;6994;49.752;6.094;2022-07-06T02:56:20;12.50;99.90
13848;DHT22;6994;49.752;6.094;2022-07-06T02:58:48;12.40;99.90
13848;DHT22;6994;49.752;6.094;2022-07-06T03:01:16;12.30;99.90
13848;DHT22;6994;49.752;6.094;2022-07-06T03:03:43;12.30;99.90
13848;DHT22;6994;49.752;6.094;2022-07-06T03:06:10;12.20;99.90
13848;DHT22;6994;49.752;6.094;2022-07-06T03:08:38;12.10;99.90
13848;DHT22;6994;49.752;6.094;2022-07-06T03:11:05;12.20;99.90
13848;DHT22;6994;49.752;6.094;2022-07-06T03:13:32;12.20;99.90
13848;DHT22;6994;49.752;6.094;2022-07-06T03:15:59;12.10;99.90
13848;DHT22;6994;49.752;6.094;2022-07-06T03:18:27;12.10;99.90
13848;DHT22;6994;49.752;6.094;2022-07-06T03:20:54;12.00;99.90
13848;DHT22;6994;49.752;6.094;2022-07-06T03:23:21;12.00;99.90
13848;DHT22;6994;49.752;6.094;2022-07-06T03:25:49;11.80;99.90
13848;DHT22;6994;49.752;6.094;2022-07-06T03:28:16;11.80;99.90
13848;DHT22;6994;49.752;6.094;2022-07-06T03:30:43;11.80;99.90
13848;DHT22;6994;49.752;6.094;2022-07-06T03:33:10;11.80;99.90
13848;DHT22;6994;49.752;6.094;2022-07-06T03:35:38;11.70;99.90
13848;DHT22;6994;49.752;6.094;2022-07-06T03:38:05;11.70;99.90
13848;DHT22;6994;49.752;6.094;2022-07-06T03:40:33;11.90;99.90
13848;DHT22;6994;49.752;6.094;2022-07-06T03:42:59;11.80;99.90
13848;DHT22;6994;49.752;6.094;2022-07-06T03:45:27;11.80;99.90
13848;DHT22;6994;49.752;6.094;2022-07-06T03:47:54;11.70;99.90
13848;DHT22;6994;49.752;6.094;2022-07-06T03:50:21;11.60;99.90
13848;DHT22;6994;49.752;6.094;2022-07-06T03:52:48;11.50;99.90
13848;DHT22;6994;49.752;6.094;2022-07-06T03:55:15;11.50;99.90
13848;DHT22;6994;49.752;6.094;2022-07-06T03:57:43;11.50;99.90
13848;DHT22;6994;49.752;6.094;2022-07-06T04:00:11;11.50;99.90
13848;DHT22;6994;49.752;6.094;2022-07-06T04:02:38;11.50;99.90
13848;DHT22;6994;49.752;6.094;2022-07-06T04:05:05;11.50;99.90
13848;DHT22;6994;49.752;6.094;2022-07-06T04:07:32;11.60;99.90
13848;DHT22;6994;49.752;6.094;2022-07-06T04:10:00;11.60;99.90
13848;DHT22;6994;49.752;6.094;2022-07-06T04:12:27;11.60;99.90
13848;DHT22;6994;49.752;6.094;2022-07-06T04:14:57;11.50;99.90
13848;DHT22;6994;49.752;6.094;2022-07-06T04:17:24;11.40;99.90
13848;DHT22;6994;49.752;6.094;2022-07-06T04:20:10;11.60;99.90
13848;DHT22;6994;49.752;6.094;2022-07-06T04:22:37;11.60;99.90
13848;DHT22;6994;49.752;6.094;2022-07-06T04:25:04;11.50;99.90
13848;DHT22;6994;49.752;6.094;2022-07-06T04:27:31;11.50;99.90
13848;DHT22;6994;49.752;6.094;2022-07-06T04:29:58;11.40;99.90
13848;DHT22;6994;49.752;6.094;2022-07-06T04:32:26;11.40;99.90
13848;DHT22;6994;49.752;6.094;2022-07-06T04:34:53;11.30;99.90
13848;DHT22;6994;49.752;6.094;2022-07-06T04:37:20;11.30;99.90
13848;DHT22;6994;49.752;6.094;2022-07-06T04:39:47;11.40;99.90
13848;DHT22;6994;49.752;6.094;2022-07-06T04:42:14;11.50;99.90
13848;DHT22;6994;49.752;6.094;2022-07-06T04:44:42;11.70;99.90
13848;DHT22;6994;49.752;6.094;2022-07-06T04:47:11;11.80;99.90
13848;DHT22;6994;49.752;6.094;2022-07-06T04:49:38;12.00;99.90
13848;DHT22;6994;49.752;6.094;2022-07-06T04:52:06;12.10;99.90
13848;DHT22;6994;49.752;6.094;2022-07-06T04:54:34;12.20;99.90
13848;DHT22;6994;49.752;6.094;2022-07-06T04:57:02;12.20;99.90
13848;DHT22;6994;49.752;6.094;2022-07-06T04:59:30;12.20;99.90
13848;DHT22;6994;49.752;6.094;2022-07-06T05:01:57;12.30;99.90
13848;DHT22;6994;49.752;6.094;2022-07-06T05:04:24;12.30;99.90
13848;DHT22;6994;49.752;6.094;2022-07-06T05:06:51;12.60;99.90
13848;DHT22;6994;49.752;6.094;2022-07-06T05:09:18;12.60;99.90
13848;DHT22;6994;49.752;6.094;2022-07-06T05:11:46;12.90;99.90
13848;DHT22;6994;49.752;6.094;2022-07-06T05:14:13;12.90;99.90
13848;DHT22;6994;49.752;6.094;2022-07-06T05:16:40;12.80;99.90
13848;DHT22;6994;49.752;6.094;2022-07-06T05:19:07;12.80;99.90
13848;DHT22;6994;49.752;6.094;2022-07-06T05:21:34;12.70;99.90
13848;DHT22;6994;49.752;6.094;2022-07-06T05:24:02;12.90;99.90
13848;DHT22;6994;49.752;6.094;2022-07-06T05:26:29;12.90;99.90
13848;DHT22;6994;49.752;6.094;2022-07-06T05:28:56;13.00;99.90
13848;DHT22;6994;49.752;6.094;2022-07-06T05:31:23;13.00;99.90
13848;DHT22;6994;49.752;6.094;2022-07-06T05:33:50;13.30;99.90
13848;DHT22;6994;49.752;6.094;2022-07-06T05:36:18;13.30;99.90
13848;DHT22;6994;49.752;6.094;2022-07-06T05:38:45;13.30;99.90
13848;DHT22;6994;49.752;6.094;2022-07-06T05:41:12;13.30;99.90
13848;DHT22;6994;49.752;6.094;2022-07-06T05:43:39;13.60;99.90
13848;DHT22;6994;49.752;6.094;2022-07-06T05:46:06;13.70;99.90
13848;DHT22;6994;49.752;6.094;2022-07-06T05:48:34;13.80;99.90
13848;DHT22;6994;49.752;6.094;2022-07-06T05:51:19;13.90;99.90
13848;DHT22;6994;49.752;6.094;2022-07-06T05:53:46;14.00;99.90
13848;DHT22;6994;49.752;6.094;2022-07-06T05:56:13;14.00;99.90
13848;DHT22;6994;49.752;6.094;2022-07-06T05:58:40;14.10;99.90
13848;DHT22;6994;49.752;6.094;2022-07-06T06:01:08;14.10;99.90
13848;DHT22;6994;49.752;6.094;2022-07-06T06:03:36;14.10;99.90
13848;DHT22;6994;49.752;6.094;2022-07-06T06:06:03;14.10;99.90
13848;DHT22;6994;49.752;6.094;2022-07-06T06:08:30;14.10;99.90
13848;DHT22;6994;49.752;6.094;2022-07-06T06:10:58;14.20;99.90
13848;DHT22;6994;49.752;6.094;2022-07-06T06:13:26;14.40;99.90
13848;DHT22;6994;49.752;6.094;2022-07-06T06:15:53;14.40;99.90
13848;DHT22;6994;49.752;6.094;2022-07-06T06:18:20;14.60;99.90
13848;DHT22;6994;49.752;6.094;2022-07-06T06:20:48;14.90;99.90
13848;DHT22;6994;49.752;6.094;2022-07-06T06:23:15;15.00;99.90
13848;DHT22;6994;49.752;6.094;2022-07-06T06:25:42;15.10;99.90
13848;DHT22;6994;49.752;6.094;2022-07-06T06:28:09;15.30;99.90
13848;DHT22;6994;49.752;6.094;2022-07-06T06:30:37;15.30;99.90
13848;DHT22;6994;49.752;6.094;2022-07-06T06:35:34;15.50;99.90
13848;DHT22;6994;49.752;6.094;2022-07-06T06:38:01;15.40;99.90
13848;DHT22;6994;49.752;6.094;2022-07-06T06:40:28;15.40;99.90
13848;DHT22;6994;49.752;6.094;2022-07-06T06:42:56;15.30;99.90
13848;DHT22;6994;49.752;6.094;2022-07-06T06:45:23;15.30;99.90
13848;DHT22;6994;49.752;6.094;2022-07-06T06:47:50;15.30;99.90
13848;DHT22;6994;49.752;6.094;2022-07-06T06:50:17;15.30;99.90
13848;DHT22;6994;49.752;6.094;2022-07-06T06:52:44;15.30;99.90
13848;DHT22;6994;49.752;6.094;2022-07-06T06:55:12;15.60;99.90
13848;DHT22;6994;49.752;6.094;2022-07-06T06:57:39;15.90;99.90
13848;DHT22;6994;49.752;6.094;2022-07-06T07:00:06;16.00;99.90
13848;DHT22;6994;49.752;6.094;2022-07-06T07:02:33;16.00;99.90
13848;DHT22;6994;49.752;6.094;2022-07-06T07:05:00;16.00;99.90
13848;DHT22;6994;49.752;6.094;2022-07-06T07:07:28;16.20;99.90
13848;DHT22;6994;49.752;6.094;2022-07-06T07:09:55;16.30;99.90
13848;DHT22;6994;49.752;6.094;2022-07-06T07:12:22;16.30;99.90
13848;DHT22;6994;49.752;6.094;2022-07-06T07:14:49;16.30;99.90
13848;DHT22;6994;49.752;6.094;2022-07-06T07:17:17;16.30;99.90
13848;DHT22;6994;49.752;6.094;2022-07-06T07:19:44;16.30;99.90
13848;DHT22;6994;49.752;6.094;2022-07-06T07:22:12;16.40;99.90
13848;DHT22;6994;49.752;6.094;2022-07-06T07:24:39;16.40;99.90
13848;DHT22;6994;49.752;6.094;2022-07-06T07:27:06;16.40;99.90
13848;DHT22;6994;49.752;6.094;2022-07-06T07:29:33;16.50;99.90
13848;DHT22;6994;49.752;6.094;2022-07-06T07:32:00;16.70;99.90
13848;DHT22;6994;49.752;6.094;2022-07-06T07:34:28;16.80;99.90
13848;DHT22;6994;49.752;6.094;2022-07-06T07:36:55;16.80;99.90
13848;DHT22;6994;49.752;6.094;2022-07-06T07:39:22;16.80;99.90
13848;DHT22;6994;49.752;6.094;2022-07-06T07:41:49;16.90;99.90
13848;DHT22;6994;49.752;6.094;2022-07-06T07:44:19;16.90;99.90
13848;DHT22;6994;49.752;6.094;2022-07-06T07:46:47;16.90;99.90
13848;DHT22;6994;49.752;6.094;2022-07-06T07:49:14;16.90;99.90
13848;DHT22;6994;49.752;6.094;2022-07-06T07:51:41;16.90;99.90
13848;DHT22;6994;49.752;6.094;2022-07-06T07:54:09;17.00;99.90
13848;DHT22;6994;49.752;6.094;2022-07-06T07:56:36;17.00;99.90
13848;DHT22;6994;49.752;6.094;2022-07-06T07:59:03;17.00;99.90
13848;DHT22;6994;49.752;6.094;2022-07-06T08:01:30;17.10;99.90
13848;DHT22;6994;49.752;6.094;2022-07-06T08:03:58;17.20;99.90
13848;DHT22;6994;49.752;6.094;2022-07-06T08:06:25;17.20;99.90
13848;DHT22;6994;49.752;6.094;2022-07-06T08:08:52;17.30;99.90
13848;DHT22;6994;49.752;6.094;2022-07-06T08:11:19;17.40;99.90
13848;DHT22;6994;49.752;6.094;2022-07-06T08:13:46;17.40;99.90
13848;DHT22;6994;49.752;6.094;2022-07-06T08:16:14;17.50;99.90
13848;DHT22;6994;49.752;6.094;2022-07-06T08:18:42;17.80;99.30
13848;DHT22;6994;49.752;6.094;2022-07-06T08:21:09;17.80;99.30
13848;DHT22;6994;49.752;6.094;2022-07-06T08:23:37;17.90;99.20
13848;DHT22;6994;49.752;6.094;2022-07-06T08:26:04;18.00;99.60
13848;DHT22;6994;49.752;6.094;2022-07-06T08:28:31;18.40;98.50
13848;DHT22;6994;49.752;6.094;2022-07-06T08:30:58;18.70;98.60
13848;DHT22;6994;49.752;6.094;2022-07-06T08:33:26;18.90;98.00
13848;DHT22;6994;49.752;6.094;2022-07-06T08:35:53;19.10;97.20
13848;DHT22;6994;49.752;6.094;2022-07-06T08:38:20;19.20;96.50
13848;DHT22;6994;49.752;6.094;2022-07-06T08:40:48;19.20;96.10
13848;DHT22;6994;49.752;6.094;2022-07-06T08:43:15;19.10;95.00
13848;DHT22;6994;49.752;6.094;2022-07-06T08:45:43;19.00;94.70
13848;DHT22;6994;49.752;6.094;2022-07-06T08:48:11;19.00;94.90
13848;DHT22;6994;49.752;6.094;2022-07-06T08:50:39;19.00;95.00
13848;DHT22;6994;49.752;6.094;2022-07-06T08:53:06;18.90;95.00
13848;DHT22;6994;49.752;6.094;2022-07-06T08:55:33;19.00;94.20
13848;DHT22;6994;49.752;6.094;2022-07-06T08:58:01;19.00;94.80
13848;DHT22;6994;49.752;6.094;2022-07-06T09:00:28;19.10;95.00
13848;DHT22;6994;49.752;6.094;2022-07-06T09:02:55;19.20;94.80
13848;DHT22;6994;49.752;6.094;2022-07-06T09:05:23;19.50;93.80
13848;DHT22;6994;49.752;6.094;2022-07-06T09:07:50;19.50;93.50
13848;DHT22;6994;49.752;6.094;2022-07-06T09:10:17;19.70;91.80
13848;DHT22;6994;49.752;6.094;2022-07-06T09:12:44;19.60;91.90
13848;DHT22;6994;49.752;6.094;2022-07-06T09:15:12;19.50;92.50
13848;DHT22;6994;49.752;6.094;2022-07-06T09:17:39;19.50;92.60
13848;DHT22;6994;49.752;6.094;2022-07-06T09:20:10;19.50;93.20
13848;DHT22;6994;49.752;6.094;2022-07-06T09:22:33;19.60;92.80
13848;DHT22;6994;49.752;6.094;2022-07-06T09:25:04;19.70;91.90
13848;DHT22;6994;49.752;6.094;2022-07-06T09:27:31;19.90;91.90
13848;DHT22;6994;49.752;6.094;2022-07-06T09:30:01;20.00;91.10
13848;DHT22;6994;49.752;6.094;2022-07-06T09:32:28;20.20;90.10
13848;DHT22;6994;49.752;6.094;2022-07-06T09:34:55;20.30;90.00
13848;DHT22;6994;49.752;6.094;2022-07-06T09:37:22;20.50;90.60
13848;DHT22;6994;49.752;6.094;2022-07-06T09:39:53;20.60;90.30
13848;DHT22;6994;49.752;6.094;2022-07-06T09:42:23;20.80;90.40
13848;DHT22;6994;49.752;6.094;2022-07-06T09:44:48;21.00;88.00
13848;DHT22;6994;49.752;6.094;2022-07-06T09:47:15;21.00;88.00
13848;DHT22;6994;49.752;6.094;2022-07-06T09:49:42;21.10;88.10
13848;DHT22;6994;49.752;6.094;2022-07-06T09:52:10;21.00;86.60
13848;DHT22;6994;49.752;6.094;2022-07-06T09:54:37;21.20;84.70
13848;DHT22;6994;49.752;6.094;2022-07-06T09:57:04;21.10;84.40
13848;DHT22;6994;49.752;6.094;2022-07-06T09:59:32;20.90;85.60
13848;DHT22;6994;49.752;6.094;2022-07-06T10:01:59;21.00;84.40
13848;DHT22;6994;49.752;6.094;2022-07-06T10:04:26;21.20;82.70
13848;DHT22;6994;49.752;6.094;2022-07-06T10:06:53;21.10;84.00
13848;DHT22;6994;49.752;6.094;2022-07-06T10:09:20;21.00;85.70
13848;DHT22;6994;49.752;6.094;2022-07-06T10:11:54;21.00;86.50
13848;DHT22;6994;49.752;6.094;2022-07-06T10:14:21;21.30;82.70
13848;DHT22;6994;49.752;6.094;2022-07-06T10:16:48;21.50;80.80
13848;DHT22;6994;49.752;6.094;2022-07-06T10:19:16;21.70;80.50
13848;DHT22;6994;49.752;6.094;2022-07-06T10:21:42;21.60;81.90
13848;DHT22;6994;49.752;6.094;2022-07-06T10:24:09;21.40;81.70
13848;DHT22;6994;49.752;6.094;2022-07-06T10:26:36;21.40;81.20
13848;DHT22;6994;49.752;6.094;2022-07-06T10:29:04;21.20;81.40
13848;DHT22;6994;49.752;6.094;2022-07-06T10:31:31;21.10;81.60
13848;DHT22;6994;49.752;6.094;2022-07-06T10:34:02;21.10;81.60
13848;DHT22;6994;49.752;6.094;2022-07-06T10:36:28;21.00;81.10
13848;DHT22;6994;49.752;6.094;2022-07-06T10:38:55;21.10;81.20
13848;DHT22;6994;49.752;6.094;2022-07-06T10:41:32;21.20;82.50
13848;DHT22;6994;49.752;6.094;2022-07-06T10:44:14;21.50;82.30
13848;DHT22;6994;49.752;6.094;2022-07-06T10:46:27;21.50;82.30
13848;DHT22;6994;49.752;6.094;2022-07-06T10:48:54;21.70;81.80
13848;DHT22;6994;49.752;6.094;2022-07-06T10:51:27;21.90;80.20
13848;DHT22;6994;49.752;6.094;2022-07-06T10:53:56;22.60;78.80
13848;DHT22;6994;49.752;6.094;2022-07-06T10:56:39;22.50;77.70
13848;DHT22;6994;49.752;6.094;2022-07-06T10:59:18;22.50;77.70
13848;DHT22;6994;49.752;6.094;2022-07-06T11:04:36;22.30;78.00
13848;DHT22;6994;49.752;6.094;2022-07-06T11:07:13;22.40;77.60
13848;DHT22;6994;49.752;6.094;2022-07-06T11:09:40;22.80;76.00
13848;DHT22;6994;49.752;6.094;2022-07-06T11:12:16;22.80;76.80
13848;DHT22;6994;49.752;6.094;2022-07-06T11:14:43;22.80;76.10
13848;DHT22;6994;49.752;6.094;2022-07-06T11:17:10;22.90;77.80
13848;DHT22;6994;49.752;6.094;2022-07-06T11:19:38;23.10;77.40
13848;DHT22;6994;49.752;6.094;2022-07-06T11:22:06;23.40;75.70
13848;DHT22;6994;49.752;6.094;2022-07-06T11:24:36;23.40;75.60
13848;DHT22;6994;49.752;6.094;2022-07-06T11:27:01;23.70;74.70
13848;DHT22;6994;49.752;6.094;2022-07-06T11:29:28;23.70;74.70
13848;DHT22;6994;49.752;6.094;2022-07-06T11:31:58;24.00;76.10
13848;DHT22;6994;49.752;6.094;2022-07-06T11:34:26;24.50;74.20
13848;DHT22;6994;49.752;6.094;2022-07-06T11:36:56;25.10;71.10
13848;DHT22;6994;49.752;6.094;2022-07-06T11:39:27;26.00;69.40
13848;DHT22;6994;49.752;6.094;2022-07-06T11:41:54;26.00;68.90
13848;DHT22;6994;49.752;6.094;2022-07-06T11:44:20;26.20;70.90
13848;DHT22;6994;49.752;6.094;2022-07-06T11:46:48;27.20;64.60
13848;DHT22;6994;49.752;6.094;2022-07-06T11:49:15;27.10;63.20
13848;DHT22;6994;49.752;6.094;2022-07-06T11:51:42;26.90;63.90
13848;DHT22;6994;49.752;6.094;2022-07-06T11:54:16;26.80;66.10
13848;DHT22;6994;49.752;6.094;2022-07-06T11:56:54;26.90;64.70
13848;DHT22;6994;49.752;6.094;2022-07-06T11:59:25;27.10;63.00
13848;DHT22;6994;49.752;6.094;2022-07-06T12:02:04;27.10;64.40
13848;DHT22;6994;49.752;6.094;2022-07-06T12:04:30;27.00;63.20
13848;DHT22;6994;49.752;6.094;2022-07-06T12:07:02;26.90;61.50
13848;DHT22;6994;49.752;6.094;2022-07-06T12:09:34;26.80;61.40
13848;DHT22;6994;49.752;6.094;2022-07-06T12:12:01;26.80;61.60
13848;DHT22;6994;49.752;6.094;2022-07-06T12:14:28;27.40;60.20
13848;DHT22;6994;49.752;6.094;2022-07-06T12:16:55;27.30;60.00
13848;DHT22;6994;49.752;6.094;2022-07-06T12:19:22;27.10;59.70
13848;DHT22;6994;49.752;6.094;2022-07-06T12:21:50;26.80;60.30
13848;DHT22;6994;49.752;6.094;2022-07-06T12:24:21;26.50;62.50
13848;DHT22;6994;49.752;6.094;2022-07-06T12:26:44;26.60;61.40
13848;DHT22;6994;49.752;6.094;2022-07-06T12:29:12;26.80;63.00
13848;DHT22;6994;49.752;6.094;2022-07-06T12:31:43;27.20;63.20
13848;DHT22;6994;49.752;6.094;2022-07-06T12:34:21;27.50;59.20
13848;DHT22;6994;49.752;6.094;2022-07-06T12:36:54;27.60;58.30
13848;DHT22;6994;49.752;6.094;2022-07-06T12:39:21;27.90;59.10
13848;DHT22;6994;49.752;6.094;2022-07-06T12:41:51;28.20;58.00
13848;DHT22;6994;49.752;6.094;2022-07-06T12:44:19;28.10;58.10
13848;DHT22;6994;49.752;6.094;2022-07-06T12:46:45;28.30;58.50
13848;DHT22;6994;49.752;6.094;2022-07-06T12:49:20;27.90;58.90
13848;DHT22;6994;49.752;6.094;2022-07-06T12:52:01;27.50;58.90
13848;DHT22;6994;49.752;6.094;2022-07-06T12:54:34;27.00;58.60
13848;DHT22;6994;49.752;6.094;2022-07-06T12:57:07;26.50;60.50
13848;DHT22;6994;49.752;6.094;2022-07-06T12:59:34;25.90;61.60
13848;DHT22;6994;49.752;6.094;2022-07-06T13:02:00;25.40;62.10
13848;DHT22;6994;49.752;6.094;2022-07-06T13:04:28;25.00;63.90
13848;DHT22;6994;49.752;6.094;2022-07-06T13:06:55;24.60;63.40
13848;DHT22;6994;49.752;6.094;2022-07-06T13:09:22;24.30;64.80
13848;DHT22;6994;49.752;6.094;2022-07-06T13:11:49;24.10;66.60
13848;DHT22;6994;49.752;6.094;2022-07-06T13:14:17;23.90;64.70
13848;DHT22;6994;49.752;6.094;2022-07-06T13:16:44;23.80;66.00
13848;DHT22;6994;49.752;6.094;2022-07-06T13:19:11;23.80;66.90
13848;DHT22;6994;49.752;6.094;2022-07-06T13:21:38;23.70;67.20
13848;DHT22;6994;49.752;6.094;2022-07-06T13:24:05;23.70;67.10
13848;DHT22;6994;49.752;6.094;2022-07-06T13:26:33;23.80;67.00
13848;DHT22;6994;49.752;6.094;2022-07-06T13:29:01;23.80;67.10
13848;DHT22;6994;49.752;6.094;2022-07-06T13:31:29;23.90;67.80
13848;DHT22;6994;49.752;6.094;2022-07-06T13:33:56;23.90;67.80
13848;DHT22;6994;49.752;6.094;2022-07-06T13:36:23;24.10;68.90
13848;DHT22;6994;49.752;6.094;2022-07-06T13:38:50;24.30;67.00
13848;DHT22;6994;49.752;6.094;2022-07-06T13:41:17;24.50;66.00
13848;DHT22;6994;49.752;6.094;2022-07-06T13:43:44;24.70;65.70
13848;DHT22;6994;49.752;6.094;2022-07-06T13:46:12;25.20;65.10
13848;DHT22;6994;49.752;6.094;2022-07-06T13:48:39;25.20;65.50
13848;DHT22;6994;49.752;6.094;2022-07-06T13:51:06;25.10;64.50
13848;DHT22;6994;49.752;6.094;2022-07-06T13:53:34;24.90;65.40
13848;DHT22;6994;49.752;6.094;2022-07-06T13:56:01;25.00;65.00
13848;DHT22;6994;49.752;6.094;2022-07-06T13:58:29;25.20;65.60
13848;DHT22;6994;49.752;6.094;2022-07-06T14:00:56;25.20;65.60
13848;DHT22;6994;49.752;6.094;2022-07-06T14:03:24;25.60;67.10
13848;DHT22;6994;49.752;6.094;2022-07-06T14:05:51;26.00;65.30
13848;DHT22;6994;49.752;6.094;2022-07-06T14:08:18;26.30;63.20
13848;DHT22;6994;49.752;6.094;2022-07-06T14:10:45;26.30;63.70
13848;DHT22;6994;49.752;6.094;2022-07-06T14:13:12;26.70;63.00
13848;DHT22;6994;49.752;6.094;2022-07-06T14:15:40;27.30;61.90
13848;DHT22;6994;49.752;6.094;2022-07-06T14:18:07;28.20;59.00
13848;DHT22;6994;49.752;6.094;2022-07-06T14:20:34;28.30;58.50
13848;DHT22;6994;49.752;6.094;2022-07-06T14:23:01;28.20;59.30
13848;DHT22;6994;49.752;6.094;2022-07-06T14:25:29;27.90;58.50
13848;DHT22;6994;49.752;6.094;2022-07-06T14:27:56;27.30;59.60
13848;DHT22;6994;49.752;6.094;2022-07-06T14:30:25;27.20;60.10
13848;DHT22;6994;49.752;6.094;2022-07-06T14:32:52;27.50;59.90
13848;DHT22;6994;49.752;6.094;2022-07-06T14:35:20;27.80;59.50
13848;DHT22;6994;49.752;6.094;2022-07-06T14:37:48;28.00;59.40
13848;DHT22;6994;49.752;6.094;2022-07-06T14:40:16;27.90;59.30
13848;DHT22;6994;49.752;6.094;2022-07-06T14:42:43;28.10;60.30
13848;DHT22;6994;49.752;6.094;2022-07-06T14:45:10;28.80;60.50
13848;DHT22;6994;49.752;6.094;2022-07-06T14:47:37;30.00;58.40
13848;DHT22;6994;49.752;6.094;2022-07-06T14:50:05;32.10;56.70
13848;DHT22;6994;49.752;6.094;2022-07-06T14:52:32;32.00;56.50
13848;DHT22;6994;49.752;6.094;2022-07-06T14:55:00;32.80;51.10
13848;DHT22;6994;49.752;6.094;2022-07-06T14:57:27;32.80;50.30
13848;DHT22;6994;49.752;6.094;2022-07-06T14:59:54;33.60;48.20
13848;DHT22;6994;49.752;6.094;2022-07-06T15:02:21;33.20;49.60
13848;DHT22;6994;49.752;6.094;2022-07-06T15:04:48;33.60;48.90
13848;DHT22;6994;49.752;6.094;2022-07-06T15:07:16;33.00;49.10
13848;DHT22;6994;49.752;6.094;2022-07-06T15:09:43;32.90;48.60
13848;DHT22;6994;49.752;6.094;2022-07-06T15:12:10;31.90;49.70
13848;DHT22;6994;49.752;6.094;2022-07-06T15:14:38;30.40;52.10
13848;DHT22;6994;49.752;6.094;2022-07-06T15:17:05;30.40;51.90
13848;DHT22;6994;49.752;6.094;2022-07-06T15:19:32;30.20;53.70
13848;DHT22;6994;49.752;6.094;2022-07-06T15:22:00;29.50;53.70
13848;DHT22;6994;49.752;6.094;2022-07-06T15:24:28;29.00;54.20
13848;DHT22;6994;49.752;6.094;2022-07-06T15:26:56;28.90;54.20
13848;DHT22;6994;49.752;6.094;2022-07-06T15:29:23;28.40;54.90
13848;DHT22;6994;49.752;6.094;2022-07-06T15:31:50;28.00;55.70
13848;DHT22;6994;49.752;6.094;2022-07-06T15:34:17;28.00;56.40
13848;DHT22;6994;49.752;6.094;2022-07-06T15:36:45;28.20;57.00
13848;DHT22;6994;49.752;6.094;2022-07-06T15:39:12;28.40;56.90
13848;DHT22;6994;49.752;6.094;2022-07-06T15:41:39;28.50;56.70
13848;DHT22;6994;49.752;6.094;2022-07-06T15:44:06;28.60;54.50
13848;DHT22;6994;49.752;6.094;2022-07-06T15:46:33;28.50;55.40
13848;DHT22;6994;49.752;6.094;2022-07-06T15:49:01;28.30;55.40
13848;DHT22;6994;49.752;6.094;2022-07-06T15:51:28;28.10;56.10
13848;DHT22;6994;49.752;6.094;2022-07-06T15:53:55;27.80;55.70